Date,TemperatureHighF,TemperatureAvgF,TemperatureLowF,DewpointHighF,DewpointAvgF,DewpointLowF,HumidityHigh,HumidityAvg,HumidityLow,PressureMaxIn,PressureMinIn,WindSpeedMaxMPH,WindSpeedAvgMPH,GustSpeedMaxMPH,PrecipitationSumIn
2013-7-1,76,71,67,72,69,67,97,94,87,30.15,30.00,6,2,12,0.11
2013-7-2,79,72,68,74,70,67,97,93,85,30.25,30.15,8,2,15,0.07
2013-7-3,79,75,71,75,72,70,96,91,83,30.27,30.22,14,4,17,0.07
2013-7-4,82,75,71,76,72,70,97,91,78,30.27,30.17,14,4,21,0.00
2013-7-5,85,77,70,77,72,68,94,86,74,30.21,30.11,16,5,20,0.00
2013-7-6,85,77,71,77,72,69,93,85,71,30.13,30.01,13,5,19,0.00
2013-7-7,87,79,70,77,73,69,96,83,63,30.05,29.95,10,2,14,0.00
2013-7-8,83,76,71,74,71,69,96,84,72,30.07,29.96,12,3,21,0.00
2013-7-9,82,74,70,75,71,69,96,89,73,30.11,30.05,6,1,10,0.00
2013-7-10,82,76,73,76,73,71,96,91,80,30.08,29.86,9,2,23,0.00
2013-7-11,76,74,72,73,72,71,97,94,90,29.92,29.84,7,2,16,0.74
2013-7-12,73,71,68,71,69,66,97,94,87,30.18,29.92,6,2,11,0.74
2013-7-13,82,72,68,77,71,67,97,94,82,30.33,30.18,3,0,8,0.34
2013-7-14,84,76,70,77,73,69,98,90,77,30.33,30.22,9,2,18,0.30
2013-7-15,89,79,72,77,74,70,97,85,64,30.23,30.12,7,1,9,0.30
2013-7-16,90,79,69,77,72,67,97,79,56,30.18,30.10,6,1,8,0.00
2013-7-17,87,76,65,75,70,64,97,81,61,30.20,30.08,5,1,9,0.00
2013-7-18,89,81,75,78,74,71,96,81,65,30.08,29.99,8,2,13,0.00
2013-7-19,88,81,75,80,76,74,96,85,74,29.99,29.81,18,3,25,0.00
2013-7-20,85,80,74,78,75,72,94,85,75,29.83,29.72,14,4,23,0.00
2013-7-21,82,74,65,72,69,64,95,86,67,30.01,29.82,9,1,9,0.28
2013-7-22,81,72,65,74,69,64,97,91,76,30.01,29.90,4,0,7,0.28
2013-7-23,83,76,70,78,74,69,97,92,83,29.89,29.60,9,2,21,0.00
2013-7-24,86,77,69,75,71,67,97,83,57,29.91,29.61,8,2,13,0.00
2013-7-25,73,66,63,66,61,59,94,85,73,30.05,29.91,11,4,18,0.10
2013-7-26,69,66,64,68,65,63,96,94,91,30.05,29.89,17,4,20,0.32
2013-7-27,80,72,65,72,68,63,96,88,73,30.10,30.03,11,2,14,0.32
2013-7-28,81,73,68,74,71,67,97,92,78,30.05,29.95,5,1,11,0.16
2013-7-29,81,73,67,76,71,66,97,91,81,30.07,30.01,4,1,8,0.16
2013-7-30,79,72,65,69,64,60,96,77,56,30.12,30.04,8,2,16,0.00
2013-7-31,79,70,60,66,62,59,97,80,53,30.15,30.09,8,1,11,0.00